Terminal Aerodrome Forecast
Issued by NWS Charleston, WV

Home | Current Version | Previous Version | Text Only | Print | Product List | Glossary On
Versions: 1 2 3 4 5 6 7 8 9 10 11 12 13 14 15 16 17 18 19 20 21 22 23 24 25 26
000
FTUS41 KRLX 231700
TAFBKW
TAF
KBKW 231729Z 2318/2418 32004KT P6SM VCTS BKN029CB
      TEMPO 2318/2321 SCT029 BKN035CB
     FM232100 35005KT P6SM VCTS BKN035CB
     FM240000 VRB03KT P6SM VCTS BKN025CB
     FM240400 VRB03KT 5SM BR BKN025
     FM240600 VRB03KT 5SM BR BKN008
     FM241400 13007KT P6SM BKN015=

USA.gov is the U.S. government's official web portal to all federal, state and local government web resources and services.